Time;durP1;ratioP1;P1;durP2;ratioP2;P2;SDS_P1;SDS_P2;PMS_P1;PMS_P2;Temp;Humidity;BMP_temperature;BMP_pressure;BME280_temperature;BME280_humidity;BME280_pressure;Samples;Min_cycle;Max_cycle;Signal;HPM_P1;HPM_P2
2023/10/18 00:00:59;;;;;;;5.13;2.83;;;;;;;10.89;100.00;101827.69;2079985;28;20268;-59
2023/10/18 00:02:00;;;;;;;7.57;2.63;;;;;;;10.90;100.00;101821.75;2079527;28;20235;-60
2023/10/18 00:03:06;;;;;;;5.73;2.73;;;;;;;10.62;100.00;101771.22;2080361;28;20674;-59
2023/10/18 00:04:06;;;;;;;6.73;2.77;;;;;;;10.90;100.00;101824.50;2089254;28;20540;-60
2023/10/18 00:05:10;;;;;;;7.60;2.67;;;;;;;10.93;100.00;101811.81;2079871;28;20463;-59
2023/10/18 00:06:22;;;;;;;5.60;3.37;;;;;;;10.93;100.00;101818.16;2080800;28;20224;-59
2023/10/18 00:07:22;;;;;;;8.67;3.10;;;;;;;10.92;100.00;101816.56;2088922;28;20442;-60
2023/10/18 00:08:23;;;;;;;5.80;3.20;;;;;;;10.84;100.00;101801.19;2090871;28;20422;-60
2023/10/18 00:09:38;;;;;;;3.57;2.43;;;;;;;10.90;100.00;101818.97;2096173;28;20199;-60
2023/10/18 00:10:39;;;;;;;4.80;2.73;;;;;;;10.61;100.00;101773.19;2089050;28;20156;-59
2023/10/18 00:11:39;;;;;;;7.37;3.13;;;;;;;10.89;100.00;101814.63;2087858;28;20400;-59
2023/10/18 00:12:41;;;;;;;6.27;2.80;;;;;;;10.89;100.00;101813.81;2089407;28;20856;-59
2023/10/18 00:13:42;;;;;;;8.40;3.17;;;;;;;10.88;100.00;101817.78;2089029;28;20689;-60
2023/10/18 00:14:44;;;;;;;6.07;3.10;;;;;;;10.73;100.00;101794.13;2088742;28;20935;-59
2023/10/18 00:15:45;;;;;;;7.57;3.00;;;;;;;10.87;100.00;101825.31;2088947;28;20557;-59
2023/10/18 00:16:45;;;;;;;4.63;2.90;;;;;;;10.86;100.00;101820.97;2088954;28;20449;-59
2023/10/18 00:17:46;;;;;;;4.37;2.63;;;;;;;10.83;100.00;101823.75;2089242;28;20662;-59
2023/10/18 00:18:46;;;;;;;6.57;2.83;;;;;;;10.84;100.00;101839.22;2087827;28;20177;-60
2023/10/18 00:19:47;;;;;;;7.03;3.50;;;;;;;10.79;100.00;101811.91;2088879;28;20189;-59
2023/10/18 00:20:57;;;;;;;3.70;2.37;;;;;;;10.80;100.00;101811.50;2089452;28;20188;-60
2023/10/18 00:21:57;;;;;;;4.17;2.23;;;;;;;10.77;100.00;101822.63;2071441;28;20284;-59
2023/10/18 00:22:58;;;;;;;5.60;2.33;;;;;;;10.75;100.00;101820.25;2080567;28;20415;-59
2023/10/18 00:23:58;;;;;;;3.73;2.27;;;;;;;10.70;100.00;101812.34;2089145;28;20185;-60
2023/10/18 00:25:00;;;;;;;7.23;2.63;;;;;;;10.75;100.00;101814.69;2081751;28;20205;-60
2023/10/18 00:26:11;;;;;;;3.87;2.60;;;;;;;10.73;100.00;101817.09;2079203;28;20193;-59
2023/10/18 00:27:12;;;;;;;7.50;2.80;;;;;;;10.73;100.00;101822.66;2089063;28;20439;-60
2023/10/18 00:28:12;;;;;;;4.50;2.70;;;;;;;10.76;100.00;101824.59;2089189;28;20449;-60
2023/10/18 00:29:13;;;;;;;5.10;2.47;;;;;;;10.80;100.00;101816.25;2088798;28;20196;-60
2023/10/18 00:30:17;;;;;;;4.23;2.63;;;;;;;10.83;100.00;101810.72;2088850;28;20727;-60
2023/10/18 00:31:20;;;;;;;6.90;2.57;;;;;;;10.67;100.00;101782.66;2088266;28;20180;-60
2023/10/18 00:32:21;;;;;;;7.93;3.27;;;;;;;10.91;100.00;101806.69;2088981;28;20494;-59
2023/10/18 00:33:22;;;;;;;3.67;2.40;;;;;;;10.95;100.00;101809.41;2089049;28;20808;-60
2023/10/18 00:34:22;;;;;;;6.47;2.57;;;;;;;10.74;100.00;101770.72;2088554;28;20486;-60
2023/10/18 00:35:31;;;;;;;4.83;2.43;;;;;;;11.00;100.00;101795.13;2088151;28;20200;-59
2023/10/18 00:36:33;;;;;;;4.40;2.50;;;;;;;10.53;100.00;101726.53;2088786;28;20226;-59
2023/10/18 00:37:34;;;;;;;4.37;2.57;;;;;;;10.94;100.00;101794.78;2088846;28;20487;-60
2023/10/18 00:38:34;;;;;;;4.83;2.73;;;;;;;11.06;100.00;101801.84;2088658;28;20500;-60
2023/10/18 00:39:35;;;;;;;6.33;2.90;;;;;;;11.06;100.00;101802.59;2088278;28;20204;-59
2023/10/18 00:40:39;;;;;;;3.47;2.40;;;;;;;11.07;100.00;101806.97;2088796;28;20237;-60
2023/10/18 00:41:43;;;;;;;5.70;3.03;;;;;;;11.06;100.00;101804.63;2088514;28;20449;-59
2023/10/18 00:42:44;;;;;;;6.60;2.80;;;;;;;11.12;100.00;101800.97;2088497;28;20457;-60
2023/10/18 00:43:45;;;;;;;6.47;2.63;;;;;;;11.03;100.00;101788.78;2089249;28;20422;-60
2023/10/18 00:44:49;;;;;;;3.60;2.37;;;;;;;10.89;100.00;101764.69;2088686;28;20620;-60
2023/10/18 00:45:51;;;;;;;4.83;2.40;;;;;;;11.22;100.00;101804.88;2088297;28;20250;-60
2023/10/18 00:46:56;;;;;;;5.57;2.90;;;;;;;11.09;100.00;101790.72;2088663;28;20803;-60
2023/10/18 00:47:59;;;;;;;4.70;3.00;;;;;;;11.26;100.00;101817.53;2088599;28;20943;-61
2023/10/18 00:49:00;;;;;;;7.77;2.67;;;;;;;11.29;100.00;101824.25;2088805;28;20538;-60
2023/10/18 00:50:01;;;;;;;4.80;2.87;;;;;;;11.15;100.00;101793.81;2088730;28;20439;-60
2023/10/18 00:51:02;;;;;;;3.70;2.37;;;;;;;11.33;100.00;101828.56;2089004;28;20180;-60
2023/10/18 00:52:03;;;;;;;4.80;2.87;;;;;;;11.33;100.00;101816.69;2088236;28;20891;-60
2023/10/18 00:53:05;;;;;;;6.20;2.50;;;;;;;11.34;100.00;101823.81;2089110;28;20423;-60
2023/10/18 00:54:10;;;;;;;12.80;3.13;;;;;;;11.36;100.00;101815.84;2088585;28;20195;-60
2023/10/18 00:55:12;;;;;;;4.40;2.63;;;;;;;11.36;100.00;101819.44;2087098;28;20453;-60
2023/10/18 00:56:15;;;;;;;4.53;2.50;;;;;;;11.22;100.00;101797.34;2081784;28;20436;-60
2023/10/18 00:57:20;;;;;;;4.63;2.40;;;;;;;11.33;100.00;101811.91;2088477;28;21032;-60
2023/10/18 00:58:22;;;;;;;5.43;2.83;;;;;;;11.31;100.00;101813.50;2088709;28;20451;-60
2023/10/18 00:59:26;;;;;;;4.87;2.80;;;;;;;11.09;100.00;101778.81;2088681;28;20435;-60
2023/10/18 01:00:26;;;;;;;5.33;2.90;;;;;;;11.02;100.00;101790.75;2088786;28;21082;-60
2023/10/18 01:01:28;;;;;;;7.77;3.10;;;;;;;11.24;100.00;101816.34;2087652;28;20834;-60
2023/10/18 01:02:28;;;;;;;5.13;2.70;;;;;;;11.26;100.00;101814.75;2088692;28;20176;-60
2023/10/18 01:03:29;;;;;;;5.70;2.70;;;;;;;11.04;100.00;101777.28;2088998;28;20979;-60
2023/10/18 01:04:34;;;;;;;4.37;2.70;;;;;;;11.27;100.00;101812.78;2088757;28;20180;-60
2023/10/18 01:05:36;;;;;;;5.80;3.10;;;;;;;11.27;100.00;101810.78;2088641;28;20220;-60
2023/10/18 01:06:41;;;;;;;6.20;2.70;;;;;;;11.04;100.00;101770.91;2088520;28;20438;-60
2023/10/18 01:07:43;;;;;;;6.47;2.50;;;;;;;11.15;100.00;101791.84;2088869;28;20419;-60
2023/10/18 01:08:47;;;;;;;4.77;2.60;;;;;;;11.27;100.00;101808.00;2087435;28;20451;-60
2023/10/18 01:09:49;;;;;;;6.07;3.00;;;;;;;11.05;100.00;101773.28;2088636;28;20449;-60
2023/10/18 01:10:51;;;;;;;4.43;2.80;;;;;;;11.28;100.00;101806.03;2089010;28;20451;-60
2023/10/18 01:11:52;;;;;;;8.23;3.40;;;;;;;11.30;100.00;101800.84;2088211;28;20943;-60
2023/10/18 01:12:52;;;;;;;7.13;3.23;;;;;;;11.33;100.00;101802.81;2088667;28;20835;-60
2023/10/18 01:13:55;;;;;;;5.57;3.13;;;;;;;11.32;100.00;101802.00;2088324;28;20196;-60
2023/10/18 01:14:57;;;;;;;5.23;3.13;;;;;;;11.32;100.00;101801.25;2080385;28;20200;-60
2023/10/18 01:15:59;;;;;;;6.97;3.03;;;;;;;11.19;100.00;101786.25;2087260;28;20454;-60
2023/10/18 01:17:01;;;;;;;8.27;3.50;;;;;;;11.27;100.00;101802.44;2088465;28;20435;-60
2023/10/18 01:18:01;;;;;;;7.03;2.87;;;;;;;11.00;100.00;101753.50;2088589;28;20488;-60
2023/10/18 01:19:05;;;;;;;4.37;2.50;;;;;;;11.27;100.00;101805.22;2088554;28;20443;-60
2023/10/18 01:20:40;;;;;;;7.13;2.73;;;;;;;11.05;100.00;101764.97;2082696;28;20231;-60
2023/10/18 01:21:33;;;;;;;3.80;2.27;;;;;;;11.24;100.00;101802.47;2082877;28;20435;-60
2023/10/18 01:22:37;;;;;;;4.73;2.90;;;;;;;11.20;100.00;101807.25;2087895;28;20454;-60
2023/10/18 01:23:38;;;;;;;5.03;2.83;;;;;;;11.22;100.00;101800.09;2088291;28;21025;-60
2023/10/18 01:24:39;;;;;;;4.73;3.00;;;;;;;11.21;100.00;101801.31;2085172;28;20451;-60
2023/10/18 01:25:39;;;;;;;6.07;2.70;;;;;;;11.23;100.00;101798.13;2081656;28;20415;-60
2023/10/18 01:26:40;;;;;;;5.30;2.83;;;;;;;11.22;100.00;101794.56;2088555;28;20215;-60
2023/10/18 01:27:43;;;;;;;6.60;3.00;;;;;;;10.89;100.00;101741.72;2089060;28;20173;-60
2023/10/18 01:28:44;;;;;;;4.03;2.70;;;;;;;11.24;100.00;101803.28;2088444;28;20202;-60
2023/10/18 01:29:44;;;;;;;8.80;2.87;;;;;;;11.24;100.00;101799.69;2088346;28;20446;-60
2023/10/18 01:30:45;;;;;;;7.67;3.07;;;;;;;11.25;100.00;101806.81;2088499;28;20192;-60
2023/10/18 01:31:46;;;;;;;4.33;2.73;;;;;;;11.08;100.00;101771.69;2088479;28;20212;-60
2023/10/18 01:32:48;;;;;;;5.57;3.47;;;;;;;11.21;100.00;101793.00;2079323;28;20247;-61
2023/10/18 01:33:50;;;;;;;7.30;3.03;;;;;;;11.20;100.00;101794.19;2079499;28;20950;-59
2023/10/18 01:34:51;;;;;;;5.27;2.77;;;;;;;11.22;100.00;101805.66;2087082;28;20447;-60
2023/10/18 01:35:53;;;;;;;4.43;2.60;;;;;;;11.26;100.00;101800.88;2080760;28;20431;-59
2023/10/18 01:36:57;;;;;;;5.83;2.90;;;;;;;11.26;100.00;101795.31;2086957;28;20238;-60
2023/10/18 01:38:00;;;;;;;4.13;2.60;;;;;;;11.25;100.00;101801.28;2087618;28;20443;-60
2023/10/18 01:39:01;;;;;;;6.37;3.37;;;;;;;11.26;100.00;101800.06;2088587;28;20479;-60
2023/10/18 01:41:30;;;;;;;3.97;2.63;;;;;;;11.22;100.00;101799.34;2087783;28;20188;-60
2023/10/18 01:42:30;;;;;;;5.07;2.73;;;;;;;10.98;100.00;101767.81;2082282;28;20467;-60
2023/10/18 01:43:31;;;;;;;5.00;2.83;;;;;;;11.18;100.00;101799.34;2085206;28;20430;-60
2023/10/18 01:44:33;;;;;;;4.17;2.73;;;;;;;10.81;100.00;101735.44;2091477;28;20565;-60
2023/10/18 01:45:37;;;;;;;8.93;3.20;;;;;;;11.27;100.00;101796.91;2095533;28;20200;-60
2023/10/18 01:46:45;;;;;;;8.73;2.67;;;;;;;11.27;100.00;101794.13;2094700;28;20413;-60
2023/10/18 01:47:45;;;;;;;5.87;3.10;;;;;;;11.09;100.00;101764.94;2088372;28;20404;-60
2023/10/18 01:48:50;;;;;;;6.23;3.60;;;;;;;11.27;100.00;101790.56;2087793;28;20421;-60
2023/10/18 01:49:53;;;;;;;4.43;2.70;;;;;;;11.19;100.00;101777.94;2088601;28;20172;-60
2023/10/18 01:50:53;;;;;;;7.13;2.83;;;;;;;11.35;100.00;101789.31;2080627;28;20423;-60
2023/10/18 01:51:54;;;;;;;4.30;2.60;;;;;;;11.37;100.00;101789.69;2079378;28;20443;-60
2023/10/18 01:52:55;;;;;;;5.37;3.10;;;;;;;11.14;100.00;101750.63;2085850;28;20175;-60
2023/10/18 01:53:55;;;;;;;6.90;3.13;;;;;;;11.43;100.00;101793.59;2088395;28;20188;-60
2023/10/18 01:54:56;;;;;;;6.03;2.80;;;;;;;11.28;100.00;101767.94;2087608;28;20216;-60
2023/10/18 01:55:57;;;;;;;5.83;2.97;;;;;;;11.47;100.00;101799.91;2079418;28;20204;-60
2023/10/18 01:56:57;;;;;;;4.83;2.97;;;;;;;11.47;100.00;101800.69;2079420;28;20184;-60
2023/10/18 01:57:58;;;;;;;7.37;3.33;;;;;;;11.48;100.00;101807.81;2080736;28;20424;-60
2023/10/18 01:58:59;;;;;;;6.83;2.87;;;;;;;11.49;100.00;101798.31;2088067;28;20633;-60
2023/10/18 01:59:59;;;;;;;4.60;3.00;;;;;;;11.27;100.00;101769.16;2088439;28;20247;-60
2023/10/18 02:01:01;;;;;;;7.93;3.20;;;;;;;11.48;100.00;101802.25;2074098;28;20189;-60
2023/10/18 02:02:11;;;;;;;5.40;3.17;;;;;;;11.48;100.00;101798.72;2071018;28;20580;-60
2023/10/18 02:03:12;;;;;;;5.03;2.90;;;;;;;11.49;100.00;101798.31;2084592;28;20465;-60
2023/10/18 02:04:24;;;;;;;4.43;2.80;;;;;;;11.52;100.00;101799.47;2088577;28;20438;-60
2023/10/18 02:05:26;;;;;;;4.57;2.30;;;;;;;11.52;100.00;101793.94;2087901;28;20727;-60
2023/10/18 02:06:27;;;;;;;5.57;3.10;;;;;;;11.45;100.00;101780.91;2088266;28;20452;-60
2023/10/18 02:07:27;;;;;;;6.83;3.30;;;;;;;11.53;100.00;101792.72;2087969;28;20441;-60
2023/10/18 02:08:28;;;;;;;4.30;2.90;;;;;;;11.53;100.00;101790.72;2089554;28;20421;-60
2023/10/18 02:11:09;;;;;;;4.67;3.23;;;;;;;11.39;100.00;101777.00;2078038;28;20224;-60
2023/10/18 02:12:09;;;;;;;5.77;2.83;;;;;;;11.32;100.00;101768.72;2088101;28;20478;-60
2023/10/18 02:13:13;;;;;;;4.13;2.80;;;;;;;11.47;100.00;101786.81;2088135;28;20419;-60
2023/10/18 02:14:14;;;;;;;5.93;3.23;;;;;;;11.46;100.00;101788.00;2088221;28;20709;-60
2023/10/18 02:15:15;;;;;;;5.90;2.90;;;;;;;11.13;100.00;101741.50;2088355;28;20802;-60
2023/10/18 02:16:19;;;;;;;6.97;2.73;;;;;;;11.44;100.00;101786.84;2088317;28;20188;-60
2023/10/18 02:17:19;;;;;;;4.33;2.70;;;;;;;11.44;100.00;101793.19;2088075;28;20440;-59
2023/10/18 02:18:20;;;;;;;4.27;3.20;;;;;;;11.08;100.00;101741.97;2088615;28;20563;-60
2023/10/18 02:19:21;;;;;;;5.27;3.53;;;;;;;11.22;100.00;101754.94;2091316;28;20198;-60
2023/10/18 02:20:28;;;;;;;7.50;3.23;;;;;;;11.47;100.00;101786.03;2093326;28;20478;-60
2023/10/18 02:21:28;;;;;;;5.70;3.40;;;;;;;11.50;100.00;101797.09;2087925;28;20460;-60
2023/10/18 02:22:29;;;;;;;6.23;2.83;;;;;;;11.50;100.00;101794.34;2088864;28;20420;-59
2023/10/18 02:23:34;;;;;;;5.50;2.70;;;;;;;11.27;100.00;101754.50;2096895;28;20187;-60
2023/10/18 02:24:36;;;;;;;6.80;2.53;;;;;;;11.43;100.00;101785.28;2079624;28;20186;-60
2023/10/18 02:25:43;;;;;;;5.20;3.10;;;;;;;11.52;100.00;101785.59;2087512;28;20442;-60
2023/10/18 02:26:53;;;;;;;5.63;2.60;;;;;;;11.25;100.00;101748.56;2078972;28;20482;-60
2023/10/18 02:27:53;;;;;;;4.33;2.50;;;;;;;11.52;100.00;101788.38;2072064;28;20509;-60
2023/10/18 02:28:54;;;;;;;5.80;3.03;;;;;;;11.52;100.00;101785.59;2071123;28;21061;-60
2023/10/18 02:29:55;;;;;;;4.67;2.40;;;;;;;11.52;100.00;101783.59;2074573;28;20186;-60
2023/10/18 02:31:13;;;;;;;4.70;2.73;;;;;;;11.49;100.00;101778.88;2083129;28;20208;-60
2023/10/18 02:32:32;;;;;;;5.57;3.03;;;;;;;11.52;100.00;101778.03;2092450;28;20661;-60
2023/10/18 02:34:38;;;;;;;3.63;2.20;;;;;;;11.55;100.00;101788.34;2087833;28;20829;-60
2023/10/18 02:35:40;;;;;;;4.93;2.80;;;;;;;11.31;100.00;101760.78;2088307;28;20430;-60
2023/10/18 02:36:47;;;;;;;4.60;2.70;;;;;;;11.52;100.00;101786.38;2088226;28;20938;-60
2023/10/18 02:37:47;;;;;;;8.60;3.13;;;;;;;11.47;100.00;101781.25;2087958;28;20429;-60
2023/10/18 02:38:55;;;;;;;3.57;2.13;;;;;;;11.54;100.00;101794.28;2087326;28;20468;-60
2023/10/18 02:40:07;;;;;;;4.43;2.53;;;;;;;11.50;100.00;101786.00;2088414;28;20671;-60
2023/10/18 02:42:43;;;;;;;4.30;2.27;;;;;;;11.40;100.00;101778.56;2059077;28;20453;-60
2023/10/18 02:43:54;;;;;;;3.73;2.30;;;;;;;11.23;100.00;101762.84;2056125;28;20457;-59
2023/10/18 02:44:56;;;;;;;5.73;2.57;;;;;;;11.31;100.00;101778.25;2063880;28;20260;-60
2023/10/18 02:45:56;;;;;;;5.70;2.83;;;;;;;11.29;100.00;101777.06;2080938;28;20427;-60
2023/10/18 02:47:15;;;;;;;4.33;2.50;;;;;;;11.11;100.00;101740.34;2080564;28;20435;-60
2023/10/18 02:48:22;;;;;;;4.27;2.83;;;;;;;11.29;100.00;101765.97;2089755;28;20195;-60
2023/10/18 02:49:27;;;;;;;4.67;2.53;;;;;;;11.23;100.00;101765.59;2086578;28;20979;-60
2023/10/18 02:50:27;;;;;;;6.07;2.83;;;;;;;11.20;100.00;101772.00;2083750;28;20801;-60
2023/10/18 02:51:31;;;;;;;3.93;2.53;;;;;;;11.18;100.00;101777.16;2089155;28;20419;-60
2023/10/18 02:52:32;;;;;;;4.87;2.63;;;;;;;11.20;100.00;101773.97;2089541;28;20168;-60
2023/10/18 02:53:40;;;;;;;8.03;3.07;;;;;;;11.16;100.00;101776.78;2089504;28;20411;-60
2023/10/18 02:54:40;;;;;;;5.50;2.77;;;;;;;11.16;100.00;101782.31;2089213;28;20206;-61
2023/10/18 02:55:42;;;;;;;4.87;2.67;;;;;;;11.13;100.00;101785.91;2088938;28;20480;-60
2023/10/18 02:56:50;;;;;;;7.23;2.97;;;;;;;11.14;100.00;101784.72;2089326;28;20200;-60
2023/10/18 02:57:52;;;;;;;5.23;2.73;;;;;;;11.04;100.00;101788.38;2089700;28;20430;-60
2023/10/18 02:59:06;;;;;;;4.93;2.80;;;;;;;11.06;100.00;101796.28;2089322;28;20535;-60
2023/10/18 03:00:11;;;;;;;4.87;2.73;;;;;;;11.05;100.00;101798.25;2089845;28;20939;-60
2023/10/18 03:01:14;;;;;;;5.20;2.90;;;;;;;11.04;100.00;101802.25;2089595;28;21010;-60
2023/10/18 03:02:14;;;;;;;3.93;2.33;;;;;;;11.01;100.00;101802.28;2089499;28;20517;-60
2023/10/18 03:03:15;;;;;;;3.53;2.50;;;;;;;11.08;100.00;101807.75;2089387;28;20529;-60
2023/10/18 03:04:16;;;;;;;4.50;2.43;;;;;;;11.06;100.00;101810.16;2090042;28;20173;-60
2023/10/18 03:05:20;;;;;;;5.43;2.40;;;;;;;11.06;100.00;101808.16;2097793;28;20175;-60
2023/10/18 03:06:24;;;;;;;6.97;2.73;;;;;;;10.89;100.00;101784.13;2081998;28;20181;-60
2023/10/18 03:07:27;;;;;;;4.90;2.60;;;;;;;10.73;100.00;101760.84;2088370;28;20491;-60
2023/10/18 03:08:28;;;;;;;4.80;2.70;;;;;;;11.02;100.00;101806.63;2089707;28;20515;-60
2023/10/18 03:10:45;;;;;;;6.77;2.90;;;;;;;10.98;100.00;101806.66;2089488;28;20188;-60
2023/10/18 03:11:45;;;;;;;5.10;3.03;;;;;;;10.89;100.00;101797.19;2088979;28;20455;-60
2023/10/18 03:12:46;;;;;;;5.00;3.10;;;;;;;10.70;100.00;101773.53;2089301;28;20595;-61
2023/10/18 03:13:48;;;;;;;7.30;2.77;;;;;;;10.93;100.00;101812.63;2089272;28;20188;-62
2023/10/18 03:14:55;;;;;;;4.73;2.90;;;;;;;10.94;100.00;101813.41;2088968;28;20199;-62
2023/10/18 03:16:57;;;;;;;5.13;2.53;;;;;;;10.90;100.00;101802.31;2089287;28;20406;-60
2023/10/18 03:17:28;;;;;;;7.90;3.07;;;;;;;10.88;100.00;101812.25;2075575;28;20976;-60
2023/10/18 03:18:29;;;;;;;8.70;2.90;;;;;;;10.84;100.00;101815.06;2084442;28;20444;-59
2023/10/18 03:19:31;;;;;;;5.17;2.93;;;;;;;10.82;100.00;101816.66;2088984;28;20443;-60
2023/10/18 03:20:32;;;;;;;5.27;2.57;;;;;;;10.75;100.00;101816.66;2089367;28;20169;-59
2023/10/18 03:21:32;;;;;;;6.57;2.80;;;;;;;10.64;100.00;101811.19;2089016;28;20510;-59
2023/10/18 03:22:33;;;;;;;6.53;2.70;;;;;;;10.70;100.00;101823.44;2089871;28;20192;-60
2023/10/18 03:23:57;;;;;;;4.47;2.80;;;;;;;10.65;100.00;101821.09;2089364;28;20653;-59
2023/10/18 03:24:55;;;;;;;5.40;3.00;;;;;;;10.62;100.00;101818.34;2088841;28;20203;-60
2023/10/18 03:25:59;;;;;;;5.17;2.80;;;;;;;10.66;100.00;101819.88;2080293;28;20467;-62
2023/10/18 03:27:07;;;;;;;5.80;2.87;;;;;;;10.66;100.00;101821.88;2080450;28;20243;-60
2023/10/18 03:28:12;;;;;;;5.07;3.23;;;;;;;10.30;100.00;101756.75;2092891;28;20445;-60
2023/10/18 03:29:16;;;;;;;5.00;2.63;;;;;;;10.69;100.00;101821.06;2086561;28;20496;-59
2023/10/18 03:30:23;;;;;;;5.97;2.23;;;;;;;10.66;100.00;101813.56;2086005;28;20445;-59
2023/10/18 03:31:34;;;;;;;9.17;3.47;;;;;;;10.73;100.00;101816.28;2088760;28;20507;-59
2023/10/18 03:32:34;;;;;;;4.67;3.07;;;;;;;10.72;100.00;101818.28;2089249;28;20434;-59
2023/10/18 03:33:34;;;;;;;8.10;3.10;;;;;;;10.43;100.00;101774.47;2088700;28;20451;-59
2023/10/18 03:34:37;;;;;;;6.80;3.50;;;;;;;10.52;100.00;101775.63;2078079;28;20209;-59
2023/10/18 03:35:43;;;;;;;5.13;3.13;;;;;;;10.75;100.00;101822.22;2072915;28;20169;-59
2023/10/18 03:36:52;;;;;;;6.40;2.93;;;;;;;10.78;100.00;101827.75;2089013;28;20400;-60
2023/10/18 03:37:57;;;;;;;7.40;3.50;;;;;;;10.79;100.00;101826.56;2089071;28;20965;-59
2023/10/18 03:39:00;;;;;;;6.83;3.87;;;;;;;10.57;100.00;101791.03;2089624;28;20841;-59
2023/10/18 03:40:08;;;;;;;5.27;3.40;;;;;;;10.80;100.00;101819.03;2089347;28;20513;-59
2023/10/18 03:41:16;;;;;;;5.80;3.40;;;;;;;10.73;100.00;101822.66;2089177;28;20954;-59
2023/10/18 03:42:32;;;;;;;4.87;3.20;;;;;;;10.71;100.00;101821.47;2089320;28;20798;-60
2023/10/18 03:43:32;;;;;;;4.40;3.33;;;;;;;10.63;100.00;101820.72;2089630;28;20401;-59
2023/10/18 03:44:33;;;;;;;5.17;3.30;;;;;;;10.50;100.00;101805.72;2088753;28;20956;-59
2023/10/18 03:47:17;;;;;;;8.10;3.33;;;;;;;10.58;100.00;101817.56;2089463;28;20245;-60
2023/10/18 03:48:23;;;;;;;6.17;3.60;;;;;;;9.96;100.00;101717.69;2081986;28;20396;-60
2023/10/18 03:50:35;;;;;;;5.93;3.40;;;;;;;10.56;100.00;101806.88;2081460;28;20161;-59
2023/10/18 03:51:40;;;;;;;5.23;3.47;;;;;;;10.65;100.00;101815.53;2088823;28;20483;-59
2023/10/18 03:52:41;;;;;;;7.67;3.53;;;;;;;10.64;100.00;101819.53;2095919;28;20997;-60
2023/10/18 03:53:42;;;;;;;7.13;3.50;;;;;;;10.21;100.00;101754.41;2091336;28;21110;-59
2023/10/18 03:55:55;;;;;;;6.83;4.10;;;;;;;10.70;100.00;101822.63;2089073;28;20195;-59
2023/10/18 03:56:57;;;;;;;7.83;3.50;;;;;;;10.68;100.00;101811.97;2089260;28;20496;-60
2023/10/18 03:57:58;;;;;;;8.00;4.30;;;;;;;10.67;100.00;101815.16;2089169;28;20196;-60
2023/10/18 04:01:26;;;;;;;10.03;4.13;;;;;;;10.24;100.00;101786.06;2088740;28;20431;-59
2023/10/18 04:02:27;;;;;;;6.67;4.33;;;;;;;10.51;100.00;101826.69;2089026;28;20453;-60
2023/10/18 04:03:29;;;;;;;6.97;3.53;;;;;;;10.44;100.00;101826.75;2089001;28;20434;-59
2023/10/18 04:04:36;;;;;;;9.00;4.30;;;;;;;10.43;100.00;101821.59;2088062;28;20247;-60
2023/10/18 04:05:44;;;;;;;6.53;3.83;;;;;;;10.42;100.00;101818.03;2088940;28;20771;-60
2023/10/18 04:06:45;;;;;;;6.00;3.80;;;;;;;10.35;100.00;101814.50;2079985;28;20477;-60
2023/10/18 04:07:45;;;;;;;5.80;3.53;;;;;;;10.29;100.00;101799.47;2080698;28;20407;-60
2023/10/18 04:08:46;;;;;;;6.87;3.50;;;;;;;10.34;100.00;101816.47;2088198;28;20223;-60
2023/10/18 04:09:53;;;;;;;11.83;4.03;;;;;;;10.34;100.00;101815.69;2089175;28;20190;-60
2023/10/18 04:11:02;;;;;;;5.90;3.80;;;;;;;10.31;100.00;101819.28;2089000;28;20598;-60
2023/10/18 04:12:04;;;;;;;6.27;3.93;;;;;;;10.28;100.00;101820.88;2088635;28;20816;-59
2023/10/18 04:13:11;;;;;;;6.93;3.70;;;;;;;10.14;100.00;101814.59;2079879;28;20478;-62
2023/10/18 04:14:16;;;;;;;6.67;3.93;;;;;;;10.20;100.00;101827.59;2080120;28;20566;-60
2023/10/18 04:15:23;;;;;;;5.93;3.83;;;;;;;10.19;100.00;101834.34;2083574;28;20485;-60
2023/10/18 04:16:28;;;;;;;4.80;3.13;;;;;;;10.20;100.00;101827.59;2093841;28;20542;-62
2023/10/18 04:18:35;;;;;;;6.90;3.47;;;;;;;10.11;100.00;101840.31;2088805;28;20486;-60
2023/10/18 04:19:36;;;;;;;7.77;3.87;;;;;;;9.74;100.00;101793.69;2088679;28;20421;-59
2023/10/18 04:20:37;;;;;;;9.20;4.10;;;;;;;10.02;100.00;101837.13;2089114;28;20259;-60
2023/10/18 04:21:38;;;;;;;6.73;3.70;;;;;;;9.94;100.00;101844.66;2088998;28;20195;-60
2023/10/18 04:22:38;;;;;;;4.23;2.80;;;;;;;9.88;100.00;101846.25;2088743;28;20449;-60
2023/10/18 04:23:38;;;;;;;7.00;3.83;;;;;;;9.89;100.00;101844.28;2088825;28;20192;-60
2023/10/18 04:24:39;;;;;;;6.13;3.90;;;;;;;9.88;100.00;101846.25;2088862;28;20192;-61
2023/10/18 04:25:40;;;;;;;6.37;3.63;;;;;;;9.49;100.00;101792.91;2088941;28;20189;-61
2023/10/18 04:26:40;;;;;;;7.47;3.30;;;;;;;9.87;100.00;101841.13;2088706;28;20219;-60
2023/10/18 04:27:42;;;;;;;6.17;3.50;;;;;;;9.72;100.00;101822.94;2089018;28;20171;-60
2023/10/18 04:28:45;;;;;;;6.07;3.40;;;;;;;9.75;100.00;101847.88;2088560;28;20264;-60
2023/10/18 04:29:47;;;;;;;5.90;3.67;;;;;;;9.73;100.00;101843.94;2089318;28;20947;-60
2023/10/18 04:30:51;;;;;;;6.73;3.97;;;;;;;9.72;100.00;101836.78;2089073;28;20442;-60
2023/10/18 04:31:56;;;;;;;6.83;3.73;;;;;;;9.56;100.00;101820.59;2088426;28;20510;-60
2023/10/18 04:33:00;;;;;;;5.40;3.60;;;;;;;9.51;100.00;101829.31;2088384;28;20445;-60
2023/10/18 04:34:03;;;;;;;6.13;3.40;;;;;;;9.62;100.00;101834.81;2088563;28;20474;-60
2023/10/18 04:35:25;;;;;;;7.93;4.17;;;;;;;9.55;100.00;101840.38;2088079;28;20462;-60
2023/10/18 04:36:24;;;;;;;6.47;4.13;;;;;;;9.26;100.00;101833.25;2082220;28;20459;-61
2023/10/18 04:37:26;;;;;;;4.90;3.00;;;;;;;9.36;100.00;101827.72;2085811;28;20477;-60
2023/10/18 04:38:37;;;;;;;6.57;3.63;;;;;;;9.35;100.00;101837.22;2088452;28;20574;-60
2023/10/18 04:39:38;;;;;;;9.57;4.13;;;;;;;9.01;100.00;101777.91;2088633;28;20429;-60
2023/10/18 04:40:43;;;;;;;7.07;4.23;;;;;;;9.47;100.00;101838.78;2088260;28;20497;-60
2023/10/18 04:41:44;;;;;;;8.27;4.20;;;;;;;9.49;100.00;101836.41;2071939;28;20564;-61
2023/10/18 04:42:46;;;;;;;7.90;4.30;;;;;;;9.32;100.00;101820.63;2070438;28;20426;-60
2023/10/18 04:43:46;;;;;;;8.00;3.93;;;;;;;9.56;100.00;101833.63;2087742;28;20169;-61
2023/10/18 04:44:50;;;;;;;8.27;4.53;;;;;;;9.59;100.00;101839.16;2088455;28;20422;-60
2023/10/18 04:45:57;;;;;;;7.50;4.90;;;;;;;9.65;100.00;101839.56;2070960;28;20194;-60
2023/10/18 04:46:59;;;;;;;9.37;5.10;;;;;;;9.58;100.00;101823.75;2079242;28;20991;-60
2023/10/18 04:48:14;;;;;;;10.40;4.47;;;;;;;9.34;100.00;101772.00;2084862;28;21077;-60
2023/10/18 04:50:19;;;;;;;18.63;5.30;;;;;;;9.62;100.00;101805.19;2078442;28;20454;-60
2023/10/18 04:51:44;;;;;;;17.97;5.40;;;;;;;9.83;100.00;101832.81;2080570;28;20188;-60
2023/10/18 04:52:47;;;;;;;11.60;6.20;;;;;;;9.54;100.00;101780.69;2083298;28;20454;-61
2023/10/18 04:53:49;;;;;;;13.40;6.60;;;;;;;9.62;100.00;101799.63;2085402;28;20481;-60
2023/10/18 04:55:05;;;;;;;13.77;7.30;;;;;;;9.86;100.00;101820.97;2078793;28;20479;-61
2023/10/18 04:56:08;;;;;;;12.17;6.63;;;;;;;9.98;100.00;101833.56;2080256;28;20430;-61
2023/10/18 04:57:11;;;;;;;9.80;5.63;;;;;;;9.99;100.00;101835.19;2085018;28;20450;-60
2023/10/18 04:58:15;;;;;;;10.57;5.10;;;;;;;10.02;100.00;101828.81;2084167;28;20515;-60
2023/10/18 05:01:18;;;;;;;12.70;5.13;;;;;;;9.98;100.00;101817.75;2071691;28;20525;-60
2023/10/18 05:02:59;;;;;;;11.17;6.30;;;;;;;10.09;100.00;101840.72;2084250;28;21004;-69
2023/10/18 05:04:18;;;;;;;13.57;5.37;;;;;;;10.08;100.00;101830.81;2062940;28;20820;-69
2023/10/18 05:05:19;;;;;;;14.53;5.17;;;;;;;9.93;100.00;101809.84;2077058;28;21191;-69
2023/10/18 05:06:28;;;;;;;11.10;4.20;;;;;;;10.16;100.00;101846.25;2080291;28;20962;-68
2023/10/18 05:07:47;;;;;;;7.13;4.37;;;;;;;10.18;100.00;101849.41;2058744;28;20451;-69
2023/10/18 05:08:48;;;;;;;10.87;4.27;;;;;;;9.58;100.00;101768.41;2090492;28;20476;-69
2023/10/18 05:09:55;;;;;;;8.83;4.30;;;;;;;10.05;100.00;101853.75;2078008;28;20513;-69
2023/10/18 05:11:22;;;;;;;8.50;3.53;;;;;;;10.02;100.00;101853.75;2079175;28;21053;-69